St.peterburg Pilot — UAMI — position and weather

sailwx.info

Track history (hours):
 
Tides and Currents Weather Stations Pressure Air Temp Water Temp Dewpoint Dewpoint Depression Visibility Wind Speed Wind Dir Waves Ship Positions

St.peterburg Pilot

Last reported at 2016-May-27 07:14 UTC. Time now 2016-May-29 17:20 UTC.
Position N 60°00' E 029°43'.

Length 59 m; draft 3.6 m.

Type: Pilot. MMSI: 273436530.

Date/timePositionNaut miles runAvg speedWind from/ knotsBaromVisibWave heightAir tempDewpointWater temp
2016-May-27 07:14N 60°00' E 029°43'1 1.6
2016-May-27 06:29N 59°59' E 029°42'0 0.0
2016-May-27 05:22N 59°59' E 029°42'0 0.0
2016-May-27 03:20N 59°59' E 029°42'0 0.0
2016-May-27 01:15N 59°59' E 029°42'0 0.0
2016-May-26 22:32N 59°59' E 029°42'0 0.0
2016-May-26 21:30N 59°59' E 029°42'2 0.5
2016-May-26 17:33N 59°59' E 029°46'10 9.7
2016-May-26 16:32N 59°55' E 030°04'5 4.9
2016-May-26 15:31N 59°54' E 030°14'0 0.0
2016-May-26 14:31N 59°54' E 030°14'0 0.0
2016-May-26 13:31N 59°54' E 030°14'0 0.0
2016-May-26 12:33N 59°54' E 030°14'0 0.0
2016-May-26 11:30N 59°54' E 030°14'0 0.0
2016-May-26 10:33N 59°54' E 030°14'0 0.0
2016-May-26 09:30N 59°54' E 030°14'0 0.0
2016-May-26 08:33N 59°54' E 030°14'0 0.0
2016-May-26 07:33N 59°54' E 030°14'0 0.0
2016-May-26 06:32N 59°54' E 030°14'0 0.0
2016-May-26 05:27N 59°54' E 030°14'0 0.0
2016-May-26 04:33N 59°54' E 030°14'0 0.0
2016-May-26 03:31N 59°54' E 030°14'0 0.0
2016-May-26 02:32N 59°54' E 030°14'0 0.0
2016-May-26 01:30N 59°54' E 030°14'0 0.0
2016-May-26 00:32N 59°54' E 030°14'0 0.0
2016-May-25 23:30N 59°54' E 030°14'0 0.0
2016-May-25 22:33N 59°54' E 030°14'0 0.0
2016-May-25 21:28N 59°54' E 030°14'0 0.0
2016-May-25 20:32N 59°54' E 030°14'0 0.0
2016-May-25 19:30N 59°54' E 030°14'0 0.0
2016-May-25 18:33N 59°54' E 030°14'0 0.0
2016-May-25 17:29N 59°54' E 030°14'0 0.0
2016-May-25 16:33N 59°54' E 030°14'0 0.0
2016-May-25 15:29N 59°54' E 030°14'0 0.0
2016-May-25 14:32N 59°54' E 030°14'0 0.0
2016-May-25 13:29N 59°54' E 030°14'0 0.0
2016-May-25 12:33N 59°54' E 030°14'0 0.0
2016-May-25 11:31N 59°54' E 030°14'0 0.0
2016-May-25 10:33N 59°54' E 030°14'0 0.0
2016-May-25 09:29N 59°54' E 030°14'0 0.0
2016-May-25 08:33N 59°54' E 030°14'0 0.0
2016-May-25 07:32N 59°54' E 030°14'2 2.0
2016-May-25 06:33N 59°53' E 030°10'1010.5
2016-May-25 05:33N 59°57' E 029°51'12 1.9
2016-May-24 23:05N 60°01' E 029°27'0 0.0
2016-May-24 02:31N 60°01' E 029°27'0 0.0
2016-May-24 01:30N 60°01' E 029°27'0 0.0
2016-May-24 00:25N 60°01' E 029°27'0 0.0
2016-May-23 23:29N 60°01' E 029°27'0 0.0
2016-May-23 22:33N 60°01' E 029°27'0 0.0
2016-May-23 21:31N 60°01' E 029°27'0 0.0
2016-May-23 19:30N 60°01' E 029°27'0 0.0
2016-May-23 18:32N 60°01' E 029°27'0 0.0
2016-May-23 01:20N 60°01' E 029°27'0 0.0
2016-May-23 00:24N 60°01' E 029°27'0 0.0
2016-May-22 18:24N 60°01' E 029°27'0 0.0
2016-May-22 03:31N 60°01' E 029°27'0 0.0
2016-May-20 20:09N 60°01' E 029°27'0 0.0
2016-May-20 19:29N 60°01' E 029°27'0 0.0
2016-May-20 18:32N 60°01' E 029°27'0 0.0
2016-May-20 17:23N 60°01' E 029°27'0 0.0
2016-May-20 16:33N 60°01' E 029°27'0 0.0
2016-May-20 15:30N 60°01' E 029°27'0 0.0
2016-May-20 14:26N 60°01' E 029°27'0 0.0
2016-May-20 13:31N 60°01' E 029°27'0 0.0
2016-May-20 12:32N 60°01' E 029°27'0 0.0
2016-May-20 08:18N 60°01' E 029°27'0 0.0
2016-May-20 03:29N 60°01' E 029°27'0 0.0
2016-May-19 21:30N 60°01' E 029°27'0 0.0
2016-May-18 22:18N 60°01' E 029°27'0 0.0
2016-May-18 21:30N 60°01' E 029°27'0 0.0
2016-May-18 15:28N 60°01' E 029°27'0 0.0
2016-May-18 14:32N 60°01' E 029°27'0 0.0
2016-May-18 13:32N 60°01' E 029°27'8 0.3
2016-May-17 07:33N 59°59' E 029°42'  
Track history (hours):
 
Tides and Currents Weather Stations Pressure Air Temp Water Temp Dewpoint Dewpoint Depression Visibility Wind Speed Wind Dir Waves Ship Positions

St.peterburg Pilot

Last reported at 2016-May-27 07:14 UTC. Time now 2016-May-29 17:20 UTC.
Position N 60°00' E 029°43'.

Length 59 m; draft 3.6 m.

Type: Pilot. MMSI: 273436530.

Date/timePositionNaut miles runAvg speedWind from/ knotsBaromVisibWave heightAir tempDewpointWater temp
2016-May-27 07:14N 60°00' E 029°43'1 1.6
2016-May-27 06:29N 59°59' E 029°42'0 0.0
2016-May-27 05:22N 59°59' E 029°42'0 0.0
2016-May-27 03:20N 59°59' E 029°42'0 0.0
2016-May-27 01:15N 59°59' E 029°42'0 0.0
2016-May-26 22:32N 59°59' E 029°42'0 0.0
2016-May-26 21:30N 59°59' E 029°42'2 0.5
2016-May-26 17:33N 59°59' E 029°46'10 9.7
2016-May-26 16:32N 59°55' E 030°04'5 4.9
2016-May-26 15:31N 59°54' E 030°14'0 0.0
2016-May-26 14:31N 59°54' E 030°14'0 0.0
2016-May-26 13:31N 59°54' E 030°14'0 0.0
2016-May-26 12:33N 59°54' E 030°14'0 0.0
2016-May-26 11:30N 59°54' E 030°14'0 0.0
2016-May-26 10:33N 59°54' E 030°14'0 0.0
2016-May-26 09:30N 59°54' E 030°14'0 0.0
2016-May-26 08:33N 59°54' E 030°14'0 0.0
2016-May-26 07:33N 59°54' E 030°14'0 0.0
2016-May-26 06:32N 59°54' E 030°14'0 0.0
2016-May-26 05:27N 59°54' E 030°14'0 0.0
2016-May-26 04:33N 59°54' E 030°14'0 0.0
2016-May-26 03:31N 59°54' E 030°14'0 0.0
2016-May-26 02:32N 59°54' E 030°14'0 0.0
2016-May-26 01:30N 59°54' E 030°14'0 0.0
2016-May-26 00:32N 59°54' E 030°14'0 0.0
2016-May-25 23:30N 59°54' E 030°14'0 0.0
2016-May-25 22:33N 59°54' E 030°14'0 0.0
2016-May-25 21:28N 59°54' E 030°14'0 0.0
2016-May-25 20:32N 59°54' E 030°14'0 0.0
2016-May-25 19:30N 59°54' E 030°14'0 0.0
2016-May-25 18:33N 59°54' E 030°14'0 0.0
2016-May-25 17:29N 59°54' E 030°14'0 0.0
2016-May-25 16:33N 59°54' E 030°14'0 0.0
2016-May-25 15:29N 59°54' E 030°14'0 0.0
2016-May-25 14:32N 59°54' E 030°14'0 0.0
2016-May-25 13:29N 59°54' E 030°14'0 0.0
2016-May-25 12:33N 59°54' E 030°14'0 0.0
2016-May-25 11:31N 59°54' E 030°14'0 0.0
2016-May-25 10:33N 59°54' E 030°14'0 0.0
2016-May-25 09:29N 59°54' E 030°14'0 0.0
2016-May-25 08:33N 59°54' E 030°14'0 0.0
2016-May-25 07:32N 59°54' E 030°14'2 2.0
2016-May-25 06:33N 59°53' E 030°10'1010.5
2016-May-25 05:33N 59°57' E 029°51'12 1.9
2016-May-24 23:05N 60°01' E 029°27'0 0.0
2016-May-24 02:31N 60°01' E 029°27'0 0.0
2016-May-24 01:30N 60°01' E 029°27'0 0.0
2016-May-24 00:25N 60°01' E 029°27'0 0.0
2016-May-23 23:29N 60°01' E 029°27'0 0.0
2016-May-23 22:33N 60°01' E 029°27'0 0.0
2016-May-23 21:31N 60°01' E 029°27'0 0.0
2016-May-23 19:30N 60°01' E 029°27'0 0.0
2016-May-23 18:32N 60°01' E 029°27'0 0.0
2016-May-23 01:20N 60°01' E 029°27'0 0.0
2016-May-23 00:24N 60°01' E 029°27'0 0.0
2016-May-22 18:24N 60°01' E 029°27'0 0.0
2016-May-22 03:31N 60°01' E 029°27'0 0.0
2016-May-20 20:09N 60°01' E 029°27'0 0.0
2016-May-20 19:29N 60°01' E 029°27'0 0.0
2016-May-20 18:32N 60°01' E 029°27'0 0.0
2016-May-20 17:23N 60°01' E 029°27'0 0.0
2016-May-20 16:33N 60°01' E 029°27'0 0.0
2016-May-20 15:30N 60°01' E 029°27'0 0.0
2016-May-20 14:26N 60°01' E 029°27'0 0.0
2016-May-20 13:31N 60°01' E 029°27'0 0.0
2016-May-20 12:32N 60°01' E 029°27'0 0.0
2016-May-20 08:18N 60°01' E 029°27'0 0.0
2016-May-20 03:29N 60°01' E 029°27'0 0.0
2016-May-19 21:30N 60°01' E 029°27'0 0.0
2016-May-18 22:18N 60°01' E 029°27'0 0.0
2016-May-18 21:30N 60°01' E 029°27'0 0.0
2016-May-18 15:28N 60°01' E 029°27'0 0.0
2016-May-18 14:32N 60°01' E 029°27'0 0.0
2016-May-18 13:32N 60°01' E 029°27'8 0.3
2016-May-17 07:33N 59°59' E 029°42'  

Dump ship's entire track history